sensor_id;sensor_type;location;lat;lon;timestamp;P1;durP1;ratioP1;P2;durP2;ratioP2
33094;SDS011;19459;53.044;8.910;2023-12-28T00:01:32;8.50;;;2.83;;
33094;SDS011;19459;53.044;8.910;2023-12-28T00:03:58;3.70;;;2.42;;
33094;SDS011;19459;53.044;8.910;2023-12-28T00:06:24;3.55;;;2.28;;
33094;SDS011;19459;53.044;8.910;2023-12-28T00:08:49;4.80;;;2.45;;
33094;SDS011;19459;53.044;8.910;2023-12-28T00:11:15;4.40;;;2.40;;
33094;SDS011;19459;53.044;8.910;2023-12-28T00:13:41;7.25;;;2.25;;
33094;SDS011;19459;53.044;8.910;2023-12-28T00:16:07;5.72;;;2.75;;
33094;SDS011;19459;53.044;8.910;2023-12-28T00:18:33;4.72;;;2.47;;
33094;SDS011;19459;53.044;8.910;2023-12-28T00:21:00;5.50;;;2.50;;
33094;SDS011;19459;53.044;8.910;2023-12-28T00:23:26;6.88;;;2.80;;
33094;SDS011;19459;53.044;8.910;2023-12-28T00:25:51;4.72;;;2.45;;
33094;SDS011;19459;53.044;8.910;2023-12-28T00:28:17;3.35;;;2.17;;
33094;SDS011;19459;53.044;8.910;2023-12-28T00:30:43;9.40;;;2.58;;
33094;SDS011;19459;53.044;8.910;2023-12-28T00:33:09;7.05;;;3.22;;
33094;SDS011;19459;53.044;8.910;2023-12-28T00:35:34;5.70;;;2.85;;
33094;SDS011;19459;53.044;8.910;2023-12-28T00:38:00;5.53;;;2.63;;
33094;SDS011;19459;53.044;8.910;2023-12-28T00:40:26;8.25;;;2.85;;
33094;SDS011;19459;53.044;8.910;2023-12-28T00:42:52;11.23;;;2.80;;
33094;SDS011;19459;53.044;8.910;2023-12-28T00:45:17;4.97;;;3.13;;
33094;SDS011;19459;53.044;8.910;2023-12-28T00:47:43;5.18;;;3.13;;
33094;SDS011;19459;53.044;8.910;2023-12-28T00:50:09;6.80;;;3.00;;
33094;SDS011;19459;53.044;8.910;2023-12-28T00:52:37;7.47;;;3.25;;
33094;SDS011;19459;53.044;8.910;2023-12-28T00:55:03;6.13;;;2.67;;
33094;SDS011;19459;53.044;8.910;2023-12-28T00:57:30;5.95;;;2.95;;
33094;SDS011;19459;53.044;8.910;2023-12-28T00:59:56;3.53;;;2.30;;
33094;SDS011;19459;53.044;8.910;2023-12-28T01:02:21;6.55;;;2.80;;
33094;SDS011;19459;53.044;8.910;2023-12-28T01:04:47;4.40;;;2.88;;
33094;SDS011;19459;53.044;8.910;2023-12-28T01:07:13;4.78;;;2.72;;
33094;SDS011;19459;53.044;8.910;2023-12-28T01:09:39;4.72;;;2.78;;
33094;SDS011;19459;53.044;8.910;2023-12-28T01:12:05;5.30;;;2.60;;
33094;SDS011;19459;53.044;8.910;2023-12-28T01:14:31;3.70;;;2.75;;
33094;SDS011;19459;53.044;8.910;2023-12-28T01:16:57;5.82;;;2.72;;
33094;SDS011;19459;53.044;8.910;2023-12-28T01:19:23;3.22;;;2.75;;
33094;SDS011;19459;53.044;8.910;2023-12-28T01:21:49;7.20;;;3.08;;
33094;SDS011;19459;53.044;8.910;2023-12-28T01:24:15;3.45;;;2.47;;
33094;SDS011;19459;53.044;8.910;2023-12-28T01:26:41;10.52;;;3.33;;
33094;SDS011;19459;53.044;8.910;2023-12-28T01:29:07;4.32;;;2.67;;
33094;SDS011;19459;53.044;8.910;2023-12-28T01:31:33;10.23;;;3.22;;
33094;SDS011;19459;53.044;8.910;2023-12-28T01:33:59;4.65;;;3.10;;
33094;SDS011;19459;53.044;8.910;2023-12-28T01:36:25;6.85;;;2.95;;
33094;SDS011;19459;53.044;8.910;2023-12-28T01:38:51;4.82;;;2.90;;
33094;SDS011;19459;53.044;8.910;2023-12-28T01:41:17;3.65;;;2.80;;
33094;SDS011;19459;53.044;8.910;2023-12-28T01:43:43;4.45;;;3.38;;
33094;SDS011;19459;53.044;8.910;2023-12-28T01:46:12;9.52;;;3.08;;
33094;SDS011;19459;53.044;8.910;2023-12-28T01:48:46;8.15;;;3.53;;
33094;SDS011;19459;53.044;8.910;2023-12-28T01:51:15;4.38;;;2.70;;
33094;SDS011;19459;53.044;8.910;2023-12-28T01:53:41;5.20;;;3.13;;
33094;SDS011;19459;53.044;8.910;2023-12-28T01:56:09;5.95;;;3.30;;
33094;SDS011;19459;53.044;8.910;2023-12-28T01:58:35;5.70;;;3.58;;
33094;SDS011;19459;53.044;8.910;2023-12-28T02:01:03;6.88;;;3.50;;
33094;SDS011;19459;53.044;8.910;2023-12-28T02:03:29;7.88;;;3.40;;
33094;SDS011;19459;53.044;8.910;2023-12-28T02:05:56;7.07;;;3.17;;
33094;SDS011;19459;53.044;8.910;2023-12-28T02:08:25;6.32;;;3.50;;
33094;SDS011;19459;53.044;8.910;2023-12-28T02:10:51;5.68;;;3.80;;
33094;SDS011;19459;53.044;8.910;2023-12-28T02:13:17;7.00;;;3.55;;
33094;SDS011;19459;53.044;8.910;2023-12-28T02:15:43;6.75;;;3.30;;
33094;SDS011;19459;53.044;8.910;2023-12-28T02:18:23;8.13;;;4.63;;
33094;SDS011;19459;53.044;8.910;2023-12-28T02:20:55;7.63;;;3.80;;
33094;SDS011;19459;53.044;8.910;2023-12-28T02:23:23;9.20;;;3.15;;
33094;SDS011;19459;53.044;8.910;2023-12-28T02:25:49;7.72;;;2.90;;
33094;SDS011;19459;53.044;8.910;2023-12-28T02:28:14;6.15;;;3.30;;
33094;SDS011;19459;53.044;8.910;2023-12-28T02:30:40;5.13;;;3.20;;
33094;SDS011;19459;53.044;8.910;2023-12-28T02:33:15;9.55;;;3.60;;
33094;SDS011;19459;53.044;8.910;2023-12-28T02:38:30;6.18;;;4.15;;
33094;SDS011;19459;53.044;8.910;2023-12-28T02:41:01;8.00;;;3.22;;
33094;SDS011;19459;53.044;8.910;2023-12-28T02:43:29;10.55;;;3.58;;
33094;SDS011;19459;53.044;8.910;2023-12-28T02:45:56;6.47;;;2.88;;
33094;SDS011;19459;53.044;8.910;2023-12-28T02:48:22;7.13;;;3.55;;
33094;SDS011;19459;53.044;8.910;2023-12-28T02:50:49;5.65;;;3.63;;
33094;SDS011;19459;53.044;8.910;2023-12-28T02:53:14;7.95;;;3.33;;
33094;SDS011;19459;53.044;8.910;2023-12-28T02:55:40;4.90;;;3.40;;
33094;SDS011;19459;53.044;8.910;2023-12-28T02:58:06;11.40;;;4.25;;
33094;SDS011;19459;53.044;8.910;2023-12-28T03:00:32;8.68;;;3.70;;
33094;SDS011;19459;53.044;8.910;2023-12-28T03:02:58;5.18;;;3.22;;
33094;SDS011;19459;53.044;8.910;2023-12-28T03:05:24;3.83;;;3.17;;
33094;SDS011;19459;53.044;8.910;2023-12-28T03:07:49;7.15;;;3.92;;
33094;SDS011;19459;53.044;8.910;2023-12-28T03:10:15;5.07;;;3.38;;
33094;SDS011;19459;53.044;8.910;2023-12-28T03:12:41;9.68;;;4.03;;
33094;SDS011;19459;53.044;8.910;2023-12-28T03:15:07;4.65;;;2.80;;
33094;SDS011;19459;53.044;8.910;2023-12-28T03:17:33;8.20;;;3.58;;
33094;SDS011;19459;53.044;8.910;2023-12-28T03:20:01;5.15;;;3.45;;
33094;SDS011;19459;53.044;8.910;2023-12-28T03:22:27;5.57;;;3.13;;
33094;SDS011;19459;53.044;8.910;2023-12-28T03:24:53;9.25;;;3.45;;
33094;SDS011;19459;53.044;8.910;2023-12-28T03:27:19;6.47;;;3.53;;
33094;SDS011;19459;53.044;8.910;2023-12-28T03:29:45;9.20;;;3.58;;
33094;SDS011;19459;53.044;8.910;2023-12-28T03:32:11;6.05;;;2.97;;
33094;SDS011;19459;53.044;8.910;2023-12-28T03:34:37;6.90;;;3.13;;
33094;SDS011;19459;53.044;8.910;2023-12-28T03:37:03;6.38;;;3.40;;
33094;SDS011;19459;53.044;8.910;2023-12-28T03:39:29;6.97;;;3.42;;
33094;SDS011;19459;53.044;8.910;2023-12-28T03:41:54;4.97;;;3.17;;
33094;SDS011;19459;53.044;8.910;2023-12-28T03:44:20;7.95;;;3.47;;
33094;SDS011;19459;53.044;8.910;2023-12-28T03:46:47;5.63;;;3.80;;
33094;SDS011;19459;53.044;8.910;2023-12-28T03:49:20;8.52;;;3.50;;
33094;SDS011;19459;53.044;8.910;2023-12-28T03:51:49;9.13;;;4.00;;
33094;SDS011;19459;53.044;8.910;2023-12-28T03:54:16;7.15;;;3.97;;
33094;SDS011;19459;53.044;8.910;2023-12-28T03:56:43;4.93;;;3.53;;
33094;SDS011;19459;53.044;8.910;2023-12-28T03:59:09;5.18;;;3.00;;
33094;SDS011;19459;53.044;8.910;2023-12-28T04:01:35;9.65;;;4.05;;
33094;SDS011;19459;53.044;8.910;2023-12-28T04:04:01;6.97;;;3.70;;
33094;SDS011;19459;53.044;8.910;2023-12-28T04:06:27;6.45;;;3.75;;
33094;SDS011;19459;53.044;8.910;2023-12-28T04:08:53;7.60;;;3.30;;
33094;SDS011;19459;53.044;8.910;2023-12-28T04:11:19;6.40;;;3.45;;
33094;SDS011;19459;53.044;8.910;2023-12-28T04:13:44;8.20;;;4.90;;
33094;SDS011;19459;53.044;8.910;2023-12-28T04:16:14;4.85;;;3.20;;
33094;SDS011;19459;53.044;8.910;2023-12-28T04:18:41;4.60;;;3.45;;
33094;SDS011;19459;53.044;8.910;2023-12-28T04:21:08;10.20;;;4.65;;
33094;SDS011;19459;53.044;8.910;2023-12-28T04:23:37;5.15;;;3.80;;
33094;SDS011;19459;53.044;8.910;2023-12-28T04:26:05;13.05;;;4.00;;
33094;SDS011;19459;53.044;8.910;2023-12-28T04:28:31;6.57;;;4.07;;
33094;SDS011;19459;53.044;8.910;2023-12-28T04:31:01;9.13;;;4.07;;
33094;SDS011;19459;53.044;8.910;2023-12-28T04:33:31;7.95;;;3.80;;
33094;SDS011;19459;53.044;8.910;2023-12-28T04:36:04;6.07;;;4.20;;
33094;SDS011;19459;53.044;8.910;2023-12-28T04:38:33;6.72;;;4.57;;
33094;SDS011;19459;53.044;8.910;2023-12-28T04:40:59;8.40;;;4.88;;
33094;SDS011;19459;53.044;8.910;2023-12-28T04:43:25;7.90;;;4.03;;
33094;SDS011;19459;53.044;8.910;2023-12-28T04:45:51;7.03;;;4.00;;
33094;SDS011;19459;53.044;8.910;2023-12-28T04:48:17;10.23;;;4.65;;
33094;SDS011;19459;53.044;8.910;2023-12-28T04:50:48;7.95;;;4.03;;
33094;SDS011;19459;53.044;8.910;2023-12-28T04:53:14;11.15;;;5.07;;
33094;SDS011;19459;53.044;8.910;2023-12-28T04:55:40;9.35;;;4.57;;
33094;SDS011;19459;53.044;8.910;2023-12-28T04:58:06;10.63;;;4.15;;
33094;SDS011;19459;53.044;8.910;2023-12-28T05:00:32;8.65;;;4.70;;
33094;SDS011;19459;53.044;8.910;2023-12-28T05:02:58;10.50;;;5.25;;
33094;SDS011;19459;53.044;8.910;2023-12-28T05:05:23;11.25;;;4.53;;
33094;SDS011;19459;53.044;8.910;2023-12-28T05:07:49;11.38;;;4.95;;
33094;SDS011;19459;53.044;8.910;2023-12-28T05:10:15;8.68;;;4.28;;
33094;SDS011;19459;53.044;8.910;2023-12-28T05:12:41;7.72;;;4.47;;
33094;SDS011;19459;53.044;8.910;2023-12-28T05:15:07;7.20;;;4.13;;
33094;SDS011;19459;53.044;8.910;2023-12-28T05:17:33;6.32;;;5.10;;
33094;SDS011;19459;53.044;8.910;2023-12-28T05:19:58;10.13;;;5.07;;
33094;SDS011;19459;53.044;8.910;2023-12-28T05:22:24;9.35;;;4.57;;
33094;SDS011;19459;53.044;8.910;2023-12-28T05:24:50;8.77;;;4.65;;
33094;SDS011;19459;53.044;8.910;2023-12-28T05:27:16;14.45;;;4.55;;
33094;SDS011;19459;53.044;8.910;2023-12-28T05:29:42;9.80;;;5.15;;
33094;SDS011;19459;53.044;8.910;2023-12-28T05:32:07;8.77;;;4.40;;
33094;SDS011;19459;53.044;8.910;2023-12-28T05:34:34;11.88;;;4.75;;
33094;SDS011;19459;53.044;8.910;2023-12-28T05:37:00;12.40;;;4.63;;
33094;SDS011;19459;53.044;8.910;2023-12-28T05:39:26;11.45;;;4.80;;
33094;SDS011;19459;53.044;8.910;2023-12-28T05:41:51;7.82;;;3.80;;
33094;SDS011;19459;53.044;8.910;2023-12-28T05:44:17;7.70;;;3.90;;
33094;SDS011;19459;53.044;8.910;2023-12-28T05:46:43;5.53;;;4.03;;
33094;SDS011;19459;53.044;8.910;2023-12-28T05:49:09;7.85;;;4.35;;
33094;SDS011;19459;53.044;8.910;2023-12-28T05:51:38;7.97;;;3.85;;
33094;SDS011;19459;53.044;8.910;2023-12-28T05:54:07;16.08;;;4.93;;
33094;SDS011;19459;53.044;8.910;2023-12-28T05:56:33;8.57;;;4.20;;
33094;SDS011;19459;53.044;8.910;2023-12-28T05:58:59;12.20;;;4.35;;
33094;SDS011;19459;53.044;8.910;2023-12-28T06:01:26;8.82;;;3.83;;
33094;SDS011;19459;53.044;8.910;2023-12-28T06:03:52;7.60;;;4.10;;
33094;SDS011;19459;53.044;8.910;2023-12-28T06:06:19;6.55;;;4.25;;
33094;SDS011;19459;53.044;8.910;2023-12-28T06:08:45;8.70;;;4.72;;
33094;SDS011;19459;53.044;8.910;2023-12-28T06:11:11;9.57;;;4.28;;
33094;SDS011;19459;53.044;8.910;2023-12-28T06:13:37;12.48;;;3.85;;
33094;SDS011;19459;53.044;8.910;2023-12-28T06:16:03;11.95;;;3.75;;
33094;SDS011;19459;53.044;8.910;2023-12-28T06:18:29;18.23;;;4.18;;
33094;SDS011;19459;53.044;8.910;2023-12-28T06:20:55;9.82;;;4.45;;
33094;SDS011;19459;53.044;8.910;2023-12-28T06:23:21;4.50;;;3.00;;
33094;SDS011;19459;53.044;8.910;2023-12-28T06:25:46;9.40;;;3.72;;
33094;SDS011;19459;53.044;8.910;2023-12-28T06:28:12;6.82;;;3.65;;
33094;SDS011;19459;53.044;8.910;2023-12-28T06:30:38;13.25;;;3.72;;
33094;SDS011;19459;53.044;8.910;2023-12-28T06:33:05;7.72;;;3.33;;
33094;SDS011;19459;53.044;8.910;2023-12-28T06:35:31;10.40;;;3.13;;
33094;SDS011;19459;53.044;8.910;2023-12-28T06:37:56;8.48;;;3.90;;
33094;SDS011;19459;53.044;8.910;2023-12-28T06:40:22;7.63;;;3.25;;
33094;SDS011;19459;53.044;8.910;2023-12-28T06:42:48;11.02;;;3.60;;
33094;SDS011;19459;53.044;8.910;2023-12-28T06:45:14;7.57;;;3.17;;
33094;SDS011;19459;53.044;8.910;2023-12-28T06:47:40;7.88;;;3.45;;
33094;SDS011;19459;53.044;8.910;2023-12-28T06:50:06;8.82;;;3.47;;
33094;SDS011;19459;53.044;8.910;2023-12-28T06:52:32;11.73;;;3.95;;
33094;SDS011;19459;53.044;8.910;2023-12-28T06:54:58;8.68;;;3.75;;
33094;SDS011;19459;53.044;8.910;2023-12-28T06:57:24;11.15;;;3.25;;
33094;SDS011;19459;53.044;8.910;2023-12-28T06:59:50;9.60;;;3.60;;
33094;SDS011;19459;53.044;8.910;2023-12-28T07:02:15;7.72;;;3.03;;
33094;SDS011;19459;53.044;8.910;2023-12-28T07:04:43;9.77;;;3.50;;
33094;SDS011;19459;53.044;8.910;2023-12-28T07:07:08;19.98;;;4.97;;
33094;SDS011;19459;53.044;8.910;2023-12-28T07:09:34;11.13;;;2.50;;
33094;SDS011;19459;53.044;8.910;2023-12-28T07:12:00;12.75;;;3.38;;
33094;SDS011;19459;53.044;8.910;2023-12-28T07:14:27;8.57;;;3.70;;
33094;SDS011;19459;53.044;8.910;2023-12-28T07:16:53;11.63;;;3.40;;
33094;SDS011;19459;53.044;8.910;2023-12-28T07:19:18;15.30;;;3.63;;
33094;SDS011;19459;53.044;8.910;2023-12-28T07:21:44;12.25;;;3.35;;
33094;SDS011;19459;53.044;8.910;2023-12-28T07:24:10;15.52;;;3.08;;
33094;SDS011;19459;53.044;8.910;2023-12-28T07:26:36;13.30;;;3.70;;
33094;SDS011;19459;53.044;8.910;2023-12-28T07:29:01;14.57;;;4.20;;
33094;SDS011;19459;53.044;8.910;2023-12-28T07:31:27;11.60;;;3.22;;
33094;SDS011;19459;53.044;8.910;2023-12-28T07:33:54;13.73;;;3.40;;
33094;SDS011;19459;53.044;8.910;2023-12-28T07:36:20;9.73;;;2.70;;
33094;SDS011;19459;53.044;8.910;2023-12-28T07:38:46;12.35;;;3.67;;
33094;SDS011;19459;53.044;8.910;2023-12-28T07:41:12;10.35;;;3.33;;
33094;SDS011;19459;53.044;8.910;2023-12-28T07:43:37;9.35;;;4.07;;
33094;SDS011;19459;53.044;8.910;2023-12-28T07:46:04;10.20;;;3.05;;
33094;SDS011;19459;53.044;8.910;2023-12-28T07:48:29;9.27;;;3.20;;
33094;SDS011;19459;53.044;8.910;2023-12-28T07:51:03;17.65;;;4.22;;
33094;SDS011;19459;53.044;8.910;2023-12-28T07:53:30;16.20;;;5.10;;
33094;SDS011;19459;53.044;8.910;2023-12-28T07:55:59;15.98;;;3.63;;
33094;SDS011;19459;53.044;8.910;2023-12-28T07:58:25;17.05;;;3.75;;
33094;SDS011;19459;53.044;8.910;2023-12-28T08:00:50;12.60;;;3.72;;
33094;SDS011;19459;53.044;8.910;2023-12-28T08:03:17;14.60;;;2.80;;
33094;SDS011;19459;53.044;8.910;2023-12-28T08:05:42;14.38;;;2.92;;
33094;SDS011;19459;53.044;8.910;2023-12-28T08:08:08;20.90;;;4.18;;
33094;SDS011;19459;53.044;8.910;2023-12-28T08:10:34;17.85;;;5.20;;
33094;SDS011;19459;53.044;8.910;2023-12-28T08:13:00;15.82;;;3.63;;
33094;SDS011;19459;53.044;8.910;2023-12-28T08:15:25;16.67;;;3.65;;
33094;SDS011;19459;53.044;8.910;2023-12-28T08:17:51;16.08;;;3.92;;
33094;SDS011;19459;53.044;8.910;2023-12-28T08:20:17;16.92;;;3.70;;
33094;SDS011;19459;53.044;8.910;2023-12-28T08:22:43;10.57;;;3.35;;
33094;SDS011;19459;53.044;8.910;2023-12-28T08:25:08;10.60;;;2.88;;
33094;SDS011;19459;53.044;8.910;2023-12-28T08:27:35;8.52;;;2.72;;
33094;SDS011;19459;53.044;8.910;2023-12-28T08:30:01;9.55;;;3.40;;
33094;SDS011;19459;53.044;8.910;2023-12-28T08:32:27;13.52;;;3.70;;
33094;SDS011;19459;53.044;8.910;2023-12-28T08:34:53;17.80;;;3.90;;
33094;SDS011;19459;53.044;8.910;2023-12-28T08:37:19;18.83;;;4.00;;
33094;SDS011;19459;53.044;8.910;2023-12-28T08:39:44;21.80;;;3.90;;
33094;SDS011;19459;53.044;8.910;2023-12-28T08:42:10;23.15;;;5.22;;
33094;SDS011;19459;53.044;8.910;2023-12-28T08:44:36;12.30;;;3.53;;
33094;SDS011;19459;53.044;8.910;2023-12-28T08:47:02;20.55;;;3.28;;
33094;SDS011;19459;53.044;8.910;2023-12-28T08:49:28;14.18;;;2.70;;
33094;SDS011;19459;53.044;8.910;2023-12-28T08:51:54;15.13;;;3.35;;
33094;SDS011;19459;53.044;8.910;2023-12-28T08:54:20;16.98;;;3.15;;
33094;SDS011;19459;53.044;8.910;2023-12-28T08:56:46;10.80;;;2.95;;
33094;SDS011;19459;53.044;8.910;2023-12-28T08:59:13;17.05;;;3.45;;
33094;SDS011;19459;53.044;8.910;2023-12-28T09:01:39;11.50;;;2.90;;
33094;SDS011;19459;53.044;8.910;2023-12-28T09:04:04;13.32;;;3.28;;
33094;SDS011;19459;53.044;8.910;2023-12-28T09:06:30;17.85;;;3.65;;
33094;SDS011;19459;53.044;8.910;2023-12-28T09:08:56;11.20;;;2.28;;
33094;SDS011;19459;53.044;8.910;2023-12-28T09:11:23;10.80;;;3.08;;
33094;SDS011;19459;53.044;8.910;2023-12-28T09:13:49;17.23;;;4.38;;
33094;SDS011;19459;53.044;8.910;2023-12-28T09:16:15;16.25;;;3.63;;
33094;SDS011;19459;53.044;8.910;2023-12-28T09:18:41;16.05;;;3.20;;
33094;SDS011;19459;53.044;8.910;2023-12-28T09:21:07;17.45;;;4.13;;
33094;SDS011;19459;53.044;8.910;2023-12-28T09:23:34;16.10;;;3.35;;
33094;SDS011;19459;53.044;8.910;2023-12-28T09:26:06;17.17;;;4.10;;
33094;SDS011;19459;53.044;8.910;2023-12-28T09:28:32;19.08;;;3.08;;
33094;SDS011;19459;53.044;8.910;2023-12-28T09:30:59;15.00;;;3.65;;
33094;SDS011;19459;53.044;8.910;2023-12-28T09:33:27;14.38;;;3.25;;
33094;SDS011;19459;53.044;8.910;2023-12-28T09:35:52;16.60;;;4.47;;
33094;SDS011;19459;53.044;8.910;2023-12-28T09:38:18;14.43;;;2.95;;
33094;SDS011;19459;53.044;8.910;2023-12-28T09:40:44;12.40;;;3.35;;
33094;SDS011;19459;53.044;8.910;2023-12-28T09:43:15;15.35;;;3.50;;
33094;SDS011;19459;53.044;8.910;2023-12-28T09:45:49;21.27;;;4.50;;
33094;SDS011;19459;53.044;8.910;2023-12-28T09:48:19;21.75;;;4.20;;
33094;SDS011;19459;53.044;8.910;2023-12-28T09:50:50;12.55;;;3.28;;
33094;SDS011;19459;53.044;8.910;2023-12-28T09:53:23;9.63;;;3.00;;
33094;SDS011;19459;53.044;8.910;2023-12-28T09:55:51;13.18;;;3.83;;
33094;SDS011;19459;53.044;8.910;2023-12-28T09:58:17;18.77;;;3.60;;
33094;SDS011;19459;53.044;8.910;2023-12-28T10:00:45;16.77;;;3.60;;
33094;SDS011;19459;53.044;8.910;2023-12-28T10:03:13;15.55;;;3.70;;
33094;SDS011;19459;53.044;8.910;2023-12-28T10:05:40;20.27;;;3.33;;
33094;SDS011;19459;53.044;8.910;2023-12-28T10:08:07;12.35;;;3.05;;
33094;SDS011;19459;53.044;8.910;2023-12-28T10:10:33;17.52;;;4.20;;
33094;SDS011;19459;53.044;8.910;2023-12-28T10:12:59;26.70;;;6.68;;
33094;SDS011;19459;53.044;8.910;2023-12-28T10:15:26;23.42;;;6.00;;
33094;SDS011;19459;53.044;8.910;2023-12-28T10:17:52;16.90;;;3.70;;
33094;SDS011;19459;53.044;8.910;2023-12-28T10:20:18;21.10;;;4.93;;
33094;SDS011;19459;53.044;8.910;2023-12-28T10:22:44;28.63;;;4.57;;
33094;SDS011;19459;53.044;8.910;2023-12-28T10:25:10;25.58;;;5.03;;
33094;SDS011;19459;53.044;8.910;2023-12-28T10:27:37;14.95;;;5.22;;
33094;SDS011;19459;53.044;8.910;2023-12-28T10:30:06;25.25;;;4.70;;
33094;SDS011;19459;53.044;8.910;2023-12-28T10:32:33;23.42;;;6.35;;
33094;SDS011;19459;53.044;8.910;2023-12-28T10:34:58;29.92;;;9.20;;
33094;SDS011;19459;53.044;8.910;2023-12-28T10:37:24;21.05;;;6.47;;
33094;SDS011;19459;53.044;8.910;2023-12-28T10:39:53;21.20;;;3.65;;
33094;SDS011;19459;53.044;8.910;2023-12-28T10:42:28;22.92;;;5.72;;
33094;SDS011;19459;53.044;8.910;2023-12-28T10:45:03;21.23;;;4.47;;
33094;SDS011;19459;53.044;8.910;2023-12-28T10:47:33;18.60;;;4.22;;
33094;SDS011;19459;53.044;8.910;2023-12-28T10:50:04;21.48;;;4.65;;
33094;SDS011;19459;53.044;8.910;2023-12-28T10:52:31;25.88;;;9.13;;
33094;SDS011;19459;53.044;8.910;2023-12-28T11:00:47;29.55;;;4.68;;
33094;SDS011;19459;53.044;8.910;2023-12-28T11:03:23;15.88;;;3.83;;
33094;SDS011;19459;53.044;8.910;2023-12-28T11:05:56;15.90;;;3.95;;
33094;SDS011;19459;53.044;8.910;2023-12-28T11:08:23;14.90;;;3.50;;
33094;SDS011;19459;53.044;8.910;2023-12-28T11:10:52;18.17;;;5.25;;
33094;SDS011;19459;53.044;8.910;2023-12-28T11:13:19;19.30;;;4.18;;
33094;SDS011;19459;53.044;8.910;2023-12-28T11:15:47;19.70;;;4.45;;
33094;SDS011;19459;53.044;8.910;2023-12-28T11:18:14;13.23;;;3.35;;
33094;SDS011;19459;53.044;8.910;2023-12-28T11:20:41;19.75;;;5.03;;
33094;SDS011;19459;53.044;8.910;2023-12-28T11:23:11;22.65;;;4.40;;
33094;SDS011;19459;53.044;8.910;2023-12-28T11:25:37;21.08;;;3.80;;
33094;SDS011;19459;53.044;8.910;2023-12-28T11:28:09;20.08;;;5.00;;
33094;SDS011;19459;53.044;8.910;2023-12-28T11:30:36;19.50;;;5.15;;
33094;SDS011;19459;53.044;8.910;2023-12-28T11:33:06;19.85;;;4.25;;
33094;SDS011;19459;53.044;8.910;2023-12-28T11:35:39;18.00;;;4.65;;
33094;SDS011;19459;53.044;8.910;2023-12-28T11:38:08;24.70;;;3.72;;
33094;SDS011;19459;53.044;8.910;2023-12-28T11:40:40;15.68;;;3.28;;
33094;SDS011;19459;53.044;8.910;2023-12-28T11:43:14;17.33;;;3.92;;
33094;SDS011;19459;53.044;8.910;2023-12-28T11:45:50;22.85;;;4.40;;
33094;SDS011;19459;53.044;8.910;2023-12-28T11:48:26;23.83;;;4.15;;
33094;SDS011;19459;53.044;8.910;2023-12-28T11:50:59;28.25;;;5.82;;
33094;SDS011;19459;53.044;8.910;2023-12-28T11:53:26;21.90;;;4.85;;
33094;SDS011;19459;53.044;8.910;2023-12-28T11:55:58;14.95;;;3.97;;
33094;SDS011;19459;53.044;8.910;2023-12-28T11:58:28;17.50;;;4.03;;
33094;SDS011;19459;53.044;8.910;2023-12-28T12:00:54;21.35;;;4.82;;
33094;SDS011;19459;53.044;8.910;2023-12-28T12:03:20;22.75;;;4.72;;
33094;SDS011;19459;53.044;8.910;2023-12-28T12:05:45;22.13;;;3.97;;
33094;SDS011;19459;53.044;8.910;2023-12-28T12:08:11;18.13;;;4.32;;
33094;SDS011;19459;53.044;8.910;2023-12-28T12:10:40;15.98;;;3.22;;
33094;SDS011;19459;53.044;8.910;2023-12-28T12:13:06;22.80;;;4.15;;
33094;SDS011;19459;53.044;8.910;2023-12-28T12:15:33;19.52;;;4.00;;
33094;SDS011;19459;53.044;8.910;2023-12-28T12:18:00;20.05;;;3.67;;
33094;SDS011;19459;53.044;8.910;2023-12-28T12:20:27;18.00;;;3.40;;
33094;SDS011;19459;53.044;8.910;2023-12-28T12:22:57;21.17;;;4.35;;
33094;SDS011;19459;53.044;8.910;2023-12-28T12:25:24;21.20;;;3.78;;
33094;SDS011;19459;53.044;8.910;2023-12-28T12:27:50;15.60;;;4.53;;
33094;SDS011;19459;53.044;8.910;2023-12-28T12:30:15;26.77;;;4.60;;
33094;SDS011;19459;53.044;8.910;2023-12-28T12:32:41;21.52;;;3.95;;
33094;SDS011;19459;53.044;8.910;2023-12-28T12:35:11;17.77;;;3.85;;
33094;SDS011;19459;53.044;8.910;2023-12-28T12:37:39;18.67;;;4.28;;
33094;SDS011;19459;53.044;8.910;2023-12-28T12:40:06;19.83;;;3.95;;
33094;SDS011;19459;53.044;8.910;2023-12-28T12:42:33;18.23;;;4.25;;
33094;SDS011;19459;53.044;8.910;2023-12-28T12:44:59;23.73;;;3.72;;
33094;SDS011;19459;53.044;8.910;2023-12-28T12:47:24;21.20;;;3.33;;
33094;SDS011;19459;53.044;8.910;2023-12-28T12:49:55;17.23;;;4.38;;
33094;SDS011;19459;53.044;8.910;2023-12-28T12:52:21;24.15;;;4.00;;
33094;SDS011;19459;53.044;8.910;2023-12-28T12:54:56;27.25;;;4.45;;
33094;SDS011;19459;53.044;8.910;2023-12-28T12:57:22;21.52;;;5.05;;
33094;SDS011;19459;53.044;8.910;2023-12-28T12:59:52;28.13;;;5.25;;
33094;SDS011;19459;53.044;8.910;2023-12-28T13:02:18;19.05;;;4.38;;
33094;SDS011;19459;53.044;8.910;2023-12-28T13:04:44;23.35;;;3.83;;
33094;SDS011;19459;53.044;8.910;2023-12-28T13:07:10;15.35;;;4.45;;
33094;SDS011;19459;53.044;8.910;2023-12-28T13:09:35;21.48;;;4.60;;
33094;SDS011;19459;53.044;8.910;2023-12-28T13:12:01;23.13;;;4.45;;
33094;SDS011;19459;53.044;8.910;2023-12-28T13:14:28;15.65;;;3.45;;
33094;SDS011;19459;53.044;8.910;2023-12-28T13:16:55;21.35;;;4.05;;
33094;SDS011;19459;53.044;8.910;2023-12-28T13:19:21;17.85;;;3.75;;
33094;SDS011;19459;53.044;8.910;2023-12-28T13:21:46;20.58;;;4.18;;
33094;SDS011;19459;53.044;8.910;2023-12-28T13:24:12;15.95;;;3.60;;
33094;SDS011;19459;53.044;8.910;2023-12-28T13:26:38;17.38;;;3.60;;
33094;SDS011;19459;53.044;8.910;2023-12-28T13:29:04;19.40;;;4.93;;
33094;SDS011;19459;53.044;8.910;2023-12-28T13:31:30;16.83;;;3.40;;
33094;SDS011;19459;53.044;8.910;2023-12-28T13:33:55;20.95;;;4.32;;
33094;SDS011;19459;53.044;8.910;2023-12-28T13:36:21;18.33;;;3.35;;
33094;SDS011;19459;53.044;8.910;2023-12-28T13:38:47;28.25;;;4.45;;
33094;SDS011;19459;53.044;8.910;2023-12-28T13:41:13;12.10;;;3.58;;
33094;SDS011;19459;53.044;8.910;2023-12-28T13:43:38;19.35;;;3.95;;
33094;SDS011;19459;53.044;8.910;2023-12-28T13:46:04;17.38;;;4.85;;
33094;SDS011;19459;53.044;8.910;2023-12-28T13:48:32;15.30;;;4.57;;
33094;SDS011;19459;53.044;8.910;2023-12-28T13:51:01;20.20;;;4.10;;
33094;SDS011;19459;53.044;8.910;2023-12-28T13:53:27;24.75;;;4.35;;
33094;SDS011;19459;53.044;8.910;2023-12-28T13:55:53;19.92;;;4.38;;
33094;SDS011;19459;53.044;8.910;2023-12-28T13:58:19;21.13;;;3.20;;
33094;SDS011;19459;53.044;8.910;2023-12-28T14:00:45;19.33;;;3.33;;
33094;SDS011;19459;53.044;8.910;2023-12-28T14:03:11;18.65;;;3.75;;
33094;SDS011;19459;53.044;8.910;2023-12-28T14:05:36;20.58;;;3.10;;
33094;SDS011;19459;53.044;8.910;2023-12-28T14:08:02;20.95;;;4.43;;
33094;SDS011;19459;53.044;8.910;2023-12-28T14:10:28;22.50;;;4.88;;
33094;SDS011;19459;53.044;8.910;2023-12-28T14:12:54;21.55;;;4.28;;
33094;SDS011;19459;53.044;8.910;2023-12-28T14:15:20;23.25;;;4.22;;
33094;SDS011;19459;53.044;8.910;2023-12-28T14:17:46;16.75;;;3.83;;
33094;SDS011;19459;53.044;8.910;2023-12-28T14:20:12;15.82;;;4.47;;
33094;SDS011;19459;53.044;8.910;2023-12-28T14:22:38;34.13;;;5.85;;
33094;SDS011;19459;53.044;8.910;2023-12-28T14:25:04;19.17;;;3.65;;
33094;SDS011;19459;53.044;8.910;2023-12-28T14:27:31;15.05;;;4.05;;
33094;SDS011;19459;53.044;8.910;2023-12-28T14:29:57;16.20;;;4.20;;
33094;SDS011;19459;53.044;8.910;2023-12-28T14:32:27;23.70;;;4.40;;
33094;SDS011;19459;53.044;8.910;2023-12-28T14:34:53;20.92;;;4.88;;
33094;SDS011;19459;53.044;8.910;2023-12-28T14:37:19;26.58;;;4.88;;
33094;SDS011;19459;53.044;8.910;2023-12-28T14:39:44;32.55;;;5.20;;
33094;SDS011;19459;53.044;8.910;2023-12-28T14:42:10;21.65;;;3.83;;
33094;SDS011;19459;53.044;8.910;2023-12-28T14:44:36;22.55;;;4.63;;
33094;SDS011;19459;53.044;8.910;2023-12-28T14:47:02;20.35;;;5.13;;